METAR AND TAF INFORMATION
METAR FOR VAPO
ADDS - METARS form results

(1821 UTC 16 May 2022)
Data provider http://aviationweather.gov/metar/data/
 
Forecast for: VAPO (PUNE/POONA (IN-A, IN)
Text: TAF VAPO 161530Z 1618/1706 29008KT 6000 NSC
Forecast period: 1800 UTC 16 May 2022 to 0600 UTC 17 May 2022
Forecast type: FROM: standard forecast or significant change
Winds: from the WNW (290 degrees) at 9 MPH (8 knots; 4.1 m/s)
Visibility: 4 miles (6 km)
Ceiling: unknown
Clouds: missing
Weather: no significant weather forecast for this period

 AIRPORT MAP

 RUNWAY INFORMATION
Runway 10 Runway length 8329 ft Runway width 150 ft
Runway elevation 0 ft Runway displaced threshold 0 ft Runway heading 94
Runway 28 Runway length 8329 ft Runway width 150 ft
Runway elevation 0 ft Runway displaced threshold 0 ft Runway heading 274
Runway 14 Runway length 5893 ft Runway width 150 ft
Runway elevation 0 ft Runway displaced threshold 425 ft Runway heading 134
Runway 32 Runway length 5893 ft Runway width 150 ft
Runway elevation 0 ft Runway displaced threshold 470 ft Runway heading 314

 AIRPORT FREQUENCIES
Type TWR Name POONA TWR Frequency 123.5 MHZ

 AIRPORT NEAR NAVIGATION AIDS
Type NDB Name Pune Frequency 381 KHZ
Type VOR-DME Name Pune Frequency 113900 KHZ



Indian Air Force Virtual | Copyrights © 2021 All rights reserved